sensor_id;sensor_type;location;lat;lon;timestamp;temperature;humidity
5364;DHT22;2705;41.410;2.160;2023-03-05T00:01:45;9.60;99.90
5364;DHT22;2705;41.410;2.160;2023-03-05T00:04:14;9.60;99.90
5364;DHT22;2705;41.410;2.160;2023-03-05T00:06:43;9.60;99.90
5364;DHT22;2705;41.410;2.160;2023-03-05T00:09:14;9.60;99.90
5364;DHT22;2705;41.410;2.160;2023-03-05T00:11:43;9.60;99.90
5364;DHT22;2705;41.410;2.160;2023-03-05T00:14:12;9.60;99.90
5364;DHT22;2705;41.410;2.160;2023-03-05T00:16:41;9.70;99.90
5364;DHT22;2705;41.410;2.160;2023-03-05T00:19:10;9.70;99.90
5364;DHT22;2705;41.410;2.160;2023-03-05T00:21:41;9.70;99.90
5364;DHT22;2705;41.410;2.160;2023-03-05T00:24:12;9.60;99.90
5364;DHT22;2705;41.410;2.160;2023-03-05T00:26:45;9.50;99.90
5364;DHT22;2705;41.410;2.160;2023-03-05T00:29:17;9.50;99.90
5364;DHT22;2705;41.410;2.160;2023-03-05T00:31:46;9.50;99.90
5364;DHT22;2705;41.410;2.160;2023-03-05T00:34:17;9.50;99.90
5364;DHT22;2705;41.410;2.160;2023-03-05T00:36:49;9.50;99.90
5364;DHT22;2705;41.410;2.160;2023-03-05T00:39:20;9.50;99.90
5364;DHT22;2705;41.410;2.160;2023-03-05T00:41:51;9.50;99.90
5364;DHT22;2705;41.410;2.160;2023-03-05T00:44:20;9.50;99.90
5364;DHT22;2705;41.410;2.160;2023-03-05T00:46:50;9.50;99.90
5364;DHT22;2705;41.410;2.160;2023-03-05T00:49:19;9.50;99.90
5364;DHT22;2705;41.410;2.160;2023-03-05T00:51:48;9.50;99.90
5364;DHT22;2705;41.410;2.160;2023-03-05T00:54:17;9.60;99.90
5364;DHT22;2705;41.410;2.160;2023-03-05T00:56:47;9.50;99.90
5364;DHT22;2705;41.410;2.160;2023-03-05T00:59:18;9.50;99.90
5364;DHT22;2705;41.410;2.160;2023-03-05T01:01:47;9.50;99.90
5364;DHT22;2705;41.410;2.160;2023-03-05T01:04:16;9.50;99.90
5364;DHT22;2705;41.410;2.160;2023-03-05T01:06:45;9.40;99.90
5364;DHT22;2705;41.410;2.160;2023-03-05T01:09:14;9.40;99.90
5364;DHT22;2705;41.410;2.160;2023-03-05T01:11:44;9.40;99.90
5364;DHT22;2705;41.410;2.160;2023-03-05T01:14:13;9.50;99.90
5364;DHT22;2705;41.410;2.160;2023-03-05T01:16:44;9.60;99.90
5364;DHT22;2705;41.410;2.160;2023-03-05T01:19:14;9.60;99.90
5364;DHT22;2705;41.410;2.160;2023-03-05T01:21:43;9.50;99.90
5364;DHT22;2705;41.410;2.160;2023-03-05T01:24:12;9.60;99.90
5364;DHT22;2705;41.410;2.160;2023-03-05T01:26:41;9.60;99.90
5364;DHT22;2705;41.410;2.160;2023-03-05T01:29:11;9.50;99.90
5364;DHT22;2705;41.410;2.160;2023-03-05T01:31:40;9.40;99.90
5364;DHT22;2705;41.410;2.160;2023-03-05T01:34:11;9.40;99.90
5364;DHT22;2705;41.410;2.160;2023-03-05T01:36:40;9.40;99.90
5364;DHT22;2705;41.410;2.160;2023-03-05T01:39:10;9.30;99.90
5364;DHT22;2705;41.410;2.160;2023-03-05T01:41:39;9.30;99.90
5364;DHT22;2705;41.410;2.160;2023-03-05T01:44:20;9.30;99.90
5364;DHT22;2705;41.410;2.160;2023-03-05T01:46:49;9.30;99.90
5364;DHT22;2705;41.410;2.160;2023-03-05T01:49:22;9.40;99.90
5364;DHT22;2705;41.410;2.160;2023-03-05T01:52:04;9.30;99.90
5364;DHT22;2705;41.410;2.160;2023-03-05T01:54:39;9.30;99.90
5364;DHT22;2705;41.410;2.160;2023-03-05T01:57:14;9.30;99.90
5364;DHT22;2705;41.410;2.160;2023-03-05T01:59:47;9.30;99.90
5364;DHT22;2705;41.410;2.160;2023-03-05T02:02:18;9.20;99.90
5364;DHT22;2705;41.410;2.160;2023-03-05T02:04:53;9.20;99.90
5364;DHT22;2705;41.410;2.160;2023-03-05T02:07:23;9.20;99.90
5364;DHT22;2705;41.410;2.160;2023-03-05T02:09:53;9.10;99.90
5364;DHT22;2705;41.410;2.160;2023-03-05T02:12:22;9.10;99.90
5364;DHT22;2705;41.410;2.160;2023-03-05T02:14:52;9.10;99.90
5364;DHT22;2705;41.410;2.160;2023-03-05T02:17:27;9.10;99.90
5364;DHT22;2705;41.410;2.160;2023-03-05T02:20:06;9.10;99.90
5364;DHT22;2705;41.410;2.160;2023-03-05T02:22:38;9.10;99.90
5364;DHT22;2705;41.410;2.160;2023-03-05T02:25:19;9.10;99.90
5364;DHT22;2705;41.410;2.160;2023-03-05T02:27:53;9.10;99.90
5364;DHT22;2705;41.410;2.160;2023-03-05T02:30:23;9.10;99.90
5364;DHT22;2705;41.410;2.160;2023-03-05T02:32:52;9.00;99.90
5364;DHT22;2705;41.410;2.160;2023-03-05T02:35:22;9.10;99.90
5364;DHT22;2705;41.410;2.160;2023-03-05T02:37:53;9.10;99.90
5364;DHT22;2705;41.410;2.160;2023-03-05T02:40:22;9.10;99.90
5364;DHT22;2705;41.410;2.160;2023-03-05T02:42:51;9.10;99.90
5364;DHT22;2705;41.410;2.160;2023-03-05T02:45:21;9.10;99.90
5364;DHT22;2705;41.410;2.160;2023-03-05T02:47:50;9.10;99.90
5364;DHT22;2705;41.410;2.160;2023-03-05T02:50:19;9.10;99.90
5364;DHT22;2705;41.410;2.160;2023-03-05T02:52:49;9.10;99.90
5364;DHT22;2705;41.410;2.160;2023-03-05T02:55:20;9.10;99.90
5364;DHT22;2705;41.410;2.160;2023-03-05T02:57:50;9.10;99.90
5364;DHT22;2705;41.410;2.160;2023-03-05T03:00:19;9.10;99.90
5364;DHT22;2705;41.410;2.160;2023-03-05T03:02:49;9.10;99.90
5364;DHT22;2705;41.410;2.160;2023-03-05T03:05:18;9.10;99.90
5364;DHT22;2705;41.410;2.160;2023-03-05T03:07:48;9.10;99.90
5364;DHT22;2705;41.410;2.160;2023-03-05T03:10:17;9.00;99.90
5364;DHT22;2705;41.410;2.160;2023-03-05T03:12:48;9.00;99.90
5364;DHT22;2705;41.410;2.160;2023-03-05T03:15:18;9.00;99.90
5364;DHT22;2705;41.410;2.160;2023-03-05T03:17:47;9.00;99.90
5364;DHT22;2705;41.410;2.160;2023-03-05T03:20:17;9.00;99.90
5364;DHT22;2705;41.410;2.160;2023-03-05T03:22:47;8.90;99.90
5364;DHT22;2705;41.410;2.160;2023-03-05T03:25:17;9.00;99.90
5364;DHT22;2705;41.410;2.160;2023-03-05T03:27:52;9.00;99.90
5364;DHT22;2705;41.410;2.160;2023-03-05T03:30:22;9.10;99.90
5364;DHT22;2705;41.410;2.160;2023-03-05T03:32:51;8.90;99.90
5364;DHT22;2705;41.410;2.160;2023-03-05T03:35:20;8.80;99.90
5364;DHT22;2705;41.410;2.160;2023-03-05T03:37:49;8.80;99.90
5364;DHT22;2705;41.410;2.160;2023-03-05T03:40:19;8.80;99.90
5364;DHT22;2705;41.410;2.160;2023-03-05T03:42:51;8.80;99.90
5364;DHT22;2705;41.410;2.160;2023-03-05T03:45:20;9.10;99.90
5364;DHT22;2705;41.410;2.160;2023-03-05T03:47:50;9.30;99.90
5364;DHT22;2705;41.410;2.160;2023-03-05T03:50:20;9.50;99.90
5364;DHT22;2705;41.410;2.160;2023-03-05T03:52:51;9.60;99.90
5364;DHT22;2705;41.410;2.160;2023-03-05T03:55:20;9.60;99.90
5364;DHT22;2705;41.410;2.160;2023-03-05T03:57:50;9.50;99.90
5364;DHT22;2705;41.410;2.160;2023-03-05T04:00:21;9.20;99.90
5364;DHT22;2705;41.410;2.160;2023-03-05T04:02:50;9.00;99.90
5364;DHT22;2705;41.410;2.160;2023-03-05T04:05:19;9.00;99.90
5364;DHT22;2705;41.410;2.160;2023-03-05T04:07:48;9.40;99.90
5364;DHT22;2705;41.410;2.160;2023-03-05T04:10:18;9.10;99.90
5364;DHT22;2705;41.410;2.160;2023-03-05T04:12:47;8.90;99.90
5364;DHT22;2705;41.410;2.160;2023-03-05T04:15:16;8.90;99.90
5364;DHT22;2705;41.410;2.160;2023-03-05T04:17:47;8.80;99.90
5364;DHT22;2705;41.410;2.160;2023-03-05T04:20:16;8.80;99.90
5364;DHT22;2705;41.410;2.160;2023-03-05T04:22:45;8.80;99.90
5364;DHT22;2705;41.410;2.160;2023-03-05T04:25:15;8.70;99.90
5364;DHT22;2705;41.410;2.160;2023-03-05T04:27:44;8.70;99.90
5364;DHT22;2705;41.410;2.160;2023-03-05T04:30:13;8.70;99.90
5364;DHT22;2705;41.410;2.160;2023-03-05T04:32:42;8.70;99.90
5364;DHT22;2705;41.410;2.160;2023-03-05T04:35:13;8.80;99.90
5364;DHT22;2705;41.410;2.160;2023-03-05T04:37:42;8.70;99.90
5364;DHT22;2705;41.410;2.160;2023-03-05T04:40:12;8.70;99.90
5364;DHT22;2705;41.410;2.160;2023-03-05T04:42:41;8.70;99.90
5364;DHT22;2705;41.410;2.160;2023-03-05T04:45:11;8.60;99.90
5364;DHT22;2705;41.410;2.160;2023-03-05T04:47:40;8.60;99.90
5364;DHT22;2705;41.410;2.160;2023-03-05T04:50:10;8.60;99.90
5364;DHT22;2705;41.410;2.160;2023-03-05T04:52:43;8.70;99.90
5364;DHT22;2705;41.410;2.160;2023-03-05T04:55:14;8.70;99.90
5364;DHT22;2705;41.410;2.160;2023-03-05T04:57:43;8.90;99.90
5364;DHT22;2705;41.410;2.160;2023-03-05T05:00:15;8.80;99.90
5364;DHT22;2705;41.410;2.160;2023-03-05T05:02:47;8.70;99.90
5364;DHT22;2705;41.410;2.160;2023-03-05T05:05:18;8.80;99.90
5364;DHT22;2705;41.410;2.160;2023-03-05T05:07:51;8.60;99.90
5364;DHT22;2705;41.410;2.160;2023-03-05T05:10:21;8.60;99.90
5364;DHT22;2705;41.410;2.160;2023-03-05T05:12:50;8.50;99.90
5364;DHT22;2705;41.410;2.160;2023-03-05T05:15:19;8.50;99.90
5364;DHT22;2705;41.410;2.160;2023-03-05T05:17:48;8.60;99.90
5364;DHT22;2705;41.410;2.160;2023-03-05T05:20:19;8.60;99.90
5364;DHT22;2705;41.410;2.160;2023-03-05T05:22:50;8.60;99.90
5364;DHT22;2705;41.410;2.160;2023-03-05T05:25:19;8.60;99.90
5364;DHT22;2705;41.410;2.160;2023-03-05T05:27:48;8.60;99.90
5364;DHT22;2705;41.410;2.160;2023-03-05T05:30:18;8.50;99.90
5364;DHT22;2705;41.410;2.160;2023-03-05T05:32:47;8.50;99.90
5364;DHT22;2705;41.410;2.160;2023-03-05T05:35:16;8.60;99.90
5364;DHT22;2705;41.410;2.160;2023-03-05T05:37:46;8.60;99.90
5364;DHT22;2705;41.410;2.160;2023-03-05T05:40:17;8.50;99.90
5364;DHT22;2705;41.410;2.160;2023-03-05T05:42:47;8.50;99.90
5364;DHT22;2705;41.410;2.160;2023-03-05T05:45:16;8.50;99.90
5364;DHT22;2705;41.410;2.160;2023-03-05T05:47:45;8.50;99.90
5364;DHT22;2705;41.410;2.160;2023-03-05T05:50:15;8.50;99.90
5364;DHT22;2705;41.410;2.160;2023-03-05T05:52:44;8.50;99.90
5364;DHT22;2705;41.410;2.160;2023-03-05T05:55:13;8.50;99.90
5364;DHT22;2705;41.410;2.160;2023-03-05T05:57:44;8.50;99.90
5364;DHT22;2705;41.410;2.160;2023-03-05T06:00:14;8.50;99.90
5364;DHT22;2705;41.410;2.160;2023-03-05T06:02:43;8.50;99.90
5364;DHT22;2705;41.410;2.160;2023-03-05T06:05:13;8.50;99.90
5364;DHT22;2705;41.410;2.160;2023-03-05T06:07:42;8.50;99.90
5364;DHT22;2705;41.410;2.160;2023-03-05T06:10:12;8.50;99.90
5364;DHT22;2705;41.410;2.160;2023-03-05T06:12:41;8.50;99.90
5364;DHT22;2705;41.410;2.160;2023-03-05T06:15:11;8.40;99.90
5364;DHT22;2705;41.410;2.160;2023-03-05T06:17:40;8.30;99.90
5364;DHT22;2705;41.410;2.160;2023-03-05T06:20:10;8.40;99.90
5364;DHT22;2705;41.410;2.160;2023-03-05T06:22:40;8.40;99.90
5364;DHT22;2705;41.410;2.160;2023-03-05T06:25:10;8.30;99.90
5364;DHT22;2705;41.410;2.160;2023-03-05T06:27:39;8.40;99.90
5364;DHT22;2705;41.410;2.160;2023-03-05T06:30:11;8.40;99.90
5364;DHT22;2705;41.410;2.160;2023-03-05T06:32:40;8.40;99.90
5364;DHT22;2705;41.410;2.160;2023-03-05T06:35:10;8.40;99.90
5364;DHT22;2705;41.410;2.160;2023-03-05T06:37:40;8.50;99.90
5364;DHT22;2705;41.410;2.160;2023-03-05T06:40:10;8.60;99.90
5364;DHT22;2705;41.410;2.160;2023-03-05T06:42:40;8.60;99.90
5364;DHT22;2705;41.410;2.160;2023-03-05T06:45:12;8.60;99.90
5364;DHT22;2705;41.410;2.160;2023-03-05T06:47:41;8.50;99.90
5364;DHT22;2705;41.410;2.160;2023-03-05T06:50:11;8.60;99.90
5364;DHT22;2705;41.410;2.160;2023-03-05T06:52:40;8.80;99.90
5364;DHT22;2705;41.410;2.160;2023-03-05T06:55:10;8.70;99.90
5364;DHT22;2705;41.410;2.160;2023-03-05T06:57:39;8.60;99.90
5364;DHT22;2705;41.410;2.160;2023-03-05T07:00:11;8.60;99.90
5364;DHT22;2705;41.410;2.160;2023-03-05T07:02:40;8.60;99.90
5364;DHT22;2705;41.410;2.160;2023-03-05T07:05:10;8.60;99.90
5364;DHT22;2705;41.410;2.160;2023-03-05T07:07:39;8.60;99.90
5364;DHT22;2705;41.410;2.160;2023-03-05T07:10:09;8.60;99.90
5364;DHT22;2705;41.410;2.160;2023-03-05T07:12:39;8.60;99.90
5364;DHT22;2705;41.410;2.160;2023-03-05T07:15:11;8.60;99.90
5364;DHT22;2705;41.410;2.160;2023-03-05T07:17:40;8.70;99.90
5364;DHT22;2705;41.410;2.160;2023-03-05T07:20:10;8.60;99.90
5364;DHT22;2705;41.410;2.160;2023-03-05T07:22:40;8.60;99.90
5364;DHT22;2705;41.410;2.160;2023-03-05T07:25:09;8.80;99.90
5364;DHT22;2705;41.410;2.160;2023-03-05T07:27:38;8.90;99.90
5364;DHT22;2705;41.410;2.160;2023-03-05T07:30:11;8.90;99.90
5364;DHT22;2705;41.410;2.160;2023-03-05T07:32:40;8.90;99.90
5364;DHT22;2705;41.410;2.160;2023-03-05T07:35:10;9.00;99.90
5364;DHT22;2705;41.410;2.160;2023-03-05T07:37:39;9.00;99.90
5364;DHT22;2705;41.410;2.160;2023-03-05T07:40:09;9.10;99.90
5364;DHT22;2705;41.410;2.160;2023-03-05T07:42:39;9.30;99.90
5364;DHT22;2705;41.410;2.160;2023-03-05T07:45:16;9.50;99.90
5364;DHT22;2705;41.410;2.160;2023-03-05T07:47:46;9.70;99.90
5364;DHT22;2705;41.410;2.160;2023-03-05T07:50:18;9.80;99.90
5364;DHT22;2705;41.410;2.160;2023-03-05T07:52:47;9.70;99.90
5364;DHT22;2705;41.410;2.160;2023-03-05T07:55:16;9.80;99.90
5364;DHT22;2705;41.410;2.160;2023-03-05T07:57:45;10.10;99.90
5364;DHT22;2705;41.410;2.160;2023-03-05T08:00:17;10.20;99.90
5364;DHT22;2705;41.410;2.160;2023-03-05T08:02:47;10.20;99.90
5364;DHT22;2705;41.410;2.160;2023-03-05T08:05:17;10.10;99.90
5364;DHT22;2705;41.410;2.160;2023-03-05T08:07:46;10.10;99.90
5364;DHT22;2705;41.410;2.160;2023-03-05T08:10:16;10.10;99.90
5364;DHT22;2705;41.410;2.160;2023-03-05T08:12:45;10.00;99.90
5364;DHT22;2705;41.410;2.160;2023-03-05T08:15:16;10.30;99.90
5364;DHT22;2705;41.410;2.160;2023-03-05T08:17:45;10.30;99.90
5364;DHT22;2705;41.410;2.160;2023-03-05T08:20:15;10.60;99.90
5364;DHT22;2705;41.410;2.160;2023-03-05T08:22:46;10.70;99.90
5364;DHT22;2705;41.410;2.160;2023-03-05T08:25:15;10.90;99.90
5364;DHT22;2705;41.410;2.160;2023-03-05T08:27:45;10.70;99.90
5364;DHT22;2705;41.410;2.160;2023-03-05T08:30:19;10.80;99.90
5364;DHT22;2705;41.410;2.160;2023-03-05T08:32:50;11.00;99.90
5364;DHT22;2705;41.410;2.160;2023-03-05T08:35:20;11.10;99.90
5364;DHT22;2705;41.410;2.160;2023-03-05T08:37:49;11.30;99.90
5364;DHT22;2705;41.410;2.160;2023-03-05T08:40:18;11.40;99.90
5364;DHT22;2705;41.410;2.160;2023-03-05T08:42:47;11.60;99.90
5364;DHT22;2705;41.410;2.160;2023-03-05T08:45:20;11.60;99.90
5364;DHT22;2705;41.410;2.160;2023-03-05T08:47:50;11.80;99.90
5364;DHT22;2705;41.410;2.160;2023-03-05T08:50:19;11.90;99.90
5364;DHT22;2705;41.410;2.160;2023-03-05T08:52:50;12.00;99.90
5364;DHT22;2705;41.410;2.160;2023-03-05T08:55:19;12.10;99.90
5364;DHT22;2705;41.410;2.160;2023-03-05T08:57:48;12.20;99.90
5364;DHT22;2705;41.410;2.160;2023-03-05T09:00:19;12.20;99.90
5364;DHT22;2705;41.410;2.160;2023-03-05T09:02:49;12.30;99.90
5364;DHT22;2705;41.410;2.160;2023-03-05T09:05:18;12.30;99.90
5364;DHT22;2705;41.410;2.160;2023-03-05T09:07:47;12.20;99.90
5364;DHT22;2705;41.410;2.160;2023-03-05T09:10:17;12.30;99.90
5364;DHT22;2705;41.410;2.160;2023-03-05T09:12:46;12.40;99.90
5364;DHT22;2705;41.410;2.160;2023-03-05T09:15:16;12.50;99.90
5364;DHT22;2705;41.410;2.160;2023-03-05T09:17:46;12.60;99.80
5364;DHT22;2705;41.410;2.160;2023-03-05T09:20:15;12.70;99.90
5364;DHT22;2705;41.410;2.160;2023-03-05T09:22:45;12.70;99.80
5364;DHT22;2705;41.410;2.160;2023-03-05T09:25:14;12.80;99.50
5364;DHT22;2705;41.410;2.160;2023-03-05T09:27:43;12.80;99.40
5364;DHT22;2705;41.410;2.160;2023-03-05T09:30:13;12.90;99.40
5364;DHT22;2705;41.410;2.160;2023-03-05T09:32:42;13.00;99.20
5364;DHT22;2705;41.410;2.160;2023-03-05T09:35:13;13.10;99.00
5364;DHT22;2705;41.410;2.160;2023-03-05T09:37:42;13.00;98.80
5364;DHT22;2705;41.410;2.160;2023-03-05T09:40:15;13.10;98.80
5364;DHT22;2705;41.410;2.160;2023-03-05T09:42:57;13.00;98.40
5364;DHT22;2705;41.410;2.160;2023-03-05T09:45:34;13.00;98.70
5364;DHT22;2705;41.410;2.160;2023-03-05T09:48:13;13.10;98.90
5364;DHT22;2705;41.410;2.160;2023-03-05T09:50:48;13.20;99.10
5364;DHT22;2705;41.410;2.160;2023-03-05T09:53:24;13.40;98.50
5364;DHT22;2705;41.410;2.160;2023-03-05T09:55:57;13.50;98.40
5364;DHT22;2705;41.410;2.160;2023-03-05T09:58:34;13.60;98.30
5364;DHT22;2705;41.410;2.160;2023-03-05T10:01:06;13.70;97.90
5364;DHT22;2705;41.410;2.160;2023-03-05T10:03:43;13.70;97.70
5364;DHT22;2705;41.410;2.160;2023-03-05T10:06:22;13.80;97.80
5364;DHT22;2705;41.410;2.160;2023-03-05T10:08:55;13.80;97.70
5364;DHT22;2705;41.410;2.160;2023-03-05T10:11:43;13.80;97.40
5364;DHT22;2705;41.410;2.160;2023-03-05T10:14:20;14.00;97.70
5364;DHT22;2705;41.410;2.160;2023-03-05T10:17:21;14.10;97.60
5364;DHT22;2705;41.410;2.160;2023-03-05T10:20:14;14.20;97.60
5364;DHT22;2705;41.410;2.160;2023-03-05T10:23:01;14.20;97.50
5364;DHT22;2705;41.410;2.160;2023-03-05T10:25:45;14.30;97.40
5364;DHT22;2705;41.410;2.160;2023-03-05T10:28:21;14.30;96.90
5364;DHT22;2705;41.410;2.160;2023-03-05T10:31:13;14.40;96.90
5364;DHT22;2705;41.410;2.160;2023-03-05T10:33:50;14.50;97.40
5364;DHT22;2705;41.410;2.160;2023-03-05T10:36:29;14.60;97.10
5364;DHT22;2705;41.410;2.160;2023-03-05T10:42:13;14.70;97.00
5364;DHT22;2705;41.410;2.160;2023-03-05T10:44:47;14.80;96.40
5364;DHT22;2705;41.410;2.160;2023-03-05T10:47:23;14.70;96.30
5364;DHT22;2705;41.410;2.160;2023-03-05T10:49:54;14.70;96.40
5364;DHT22;2705;41.410;2.160;2023-03-05T10:52:28;14.90;96.50
5364;DHT22;2705;41.410;2.160;2023-03-05T10:55:00;15.10;96.80
5364;DHT22;2705;41.410;2.160;2023-03-05T10:57:30;15.20;96.70
5364;DHT22;2705;41.410;2.160;2023-03-05T11:00:09;15.20;96.60
5364;DHT22;2705;41.410;2.160;2023-03-05T11:02:56;15.20;96.60
5364;DHT22;2705;41.410;2.160;2023-03-05T11:05:40;15.10;96.70
5364;DHT22;2705;41.410;2.160;2023-03-05T11:08:26;15.20;97.10
5364;DHT22;2705;41.410;2.160;2023-03-05T11:11:18;15.10;97.10
5364;DHT22;2705;41.410;2.160;2023-03-05T11:13:56;15.20;97.20
5364;DHT22;2705;41.410;2.160;2023-03-05T11:16:27;15.40;97.70
5364;DHT22;2705;41.410;2.160;2023-03-05T11:19:16;15.50;97.80
5364;DHT22;2705;41.410;2.160;2023-03-05T11:22:11;15.40;97.80
5364;DHT22;2705;41.410;2.160;2023-03-05T11:24:37;15.40;98.50
5364;DHT22;2705;41.410;2.160;2023-03-05T11:27:30;15.40;99.00
5364;DHT22;2705;41.410;2.160;2023-03-05T11:30:00;15.30;99.40
5364;DHT22;2705;41.410;2.160;2023-03-05T11:32:29;15.40;99.90
5364;DHT22;2705;41.410;2.160;2023-03-05T11:34:59;15.20;99.90
5364;DHT22;2705;41.410;2.160;2023-03-05T11:37:29;15.40;99.90
5364;DHT22;2705;41.410;2.160;2023-03-05T11:40:17;15.30;99.90
5364;DHT22;2705;41.410;2.160;2023-03-05T11:42:54;15.50;99.90
5364;DHT22;2705;41.410;2.160;2023-03-05T11:45:25;15.50;99.90
5364;DHT22;2705;41.410;2.160;2023-03-05T11:47:57;15.50;99.90
5364;DHT22;2705;41.410;2.160;2023-03-05T11:50:31;15.40;99.90
5364;DHT22;2705;41.410;2.160;2023-03-05T11:53:04;15.40;99.90
5364;DHT22;2705;41.410;2.160;2023-03-05T11:55:39;15.50;99.90
5364;DHT22;2705;41.410;2.160;2023-03-05T11:58:24;15.60;99.90
5364;DHT22;2705;41.410;2.160;2023-03-05T12:00:54;15.40;99.90
5364;DHT22;2705;41.410;2.160;2023-03-05T12:03:27;15.50;99.90
5364;DHT22;2705;41.410;2.160;2023-03-05T12:06:01;15.60;99.90
5364;DHT22;2705;41.410;2.160;2023-03-05T12:08:36;15.60;99.90
5364;DHT22;2705;41.410;2.160;2023-03-05T12:11:13;15.70;99.70
5364;DHT22;2705;41.410;2.160;2023-03-05T12:13:48;15.90;99.80
5364;DHT22;2705;41.410;2.160;2023-03-05T12:16:27;15.90;99.70
5364;DHT22;2705;41.410;2.160;2023-03-05T12:21:59;15.80;99.90
5364;DHT22;2705;41.410;2.160;2023-03-05T12:24:35;15.90;99.90
5364;DHT22;2705;41.410;2.160;2023-03-05T12:27:16;15.60;99.90
5364;DHT22;2705;41.410;2.160;2023-03-05T12:30:00;15.60;99.90
5364;DHT22;2705;41.410;2.160;2023-03-05T12:32:57;15.60;99.90
5364;DHT22;2705;41.410;2.160;2023-03-05T12:35:35;15.60;99.90
5364;DHT22;2705;41.410;2.160;2023-03-05T12:38:31;15.60;99.90
5364;DHT22;2705;41.410;2.160;2023-03-05T12:44:19;15.80;99.90
5364;DHT22;2705;41.410;2.160;2023-03-05T12:49:54;15.90;99.90
5364;DHT22;2705;41.410;2.160;2023-03-05T12:52:26;15.80;99.90
5364;DHT22;2705;41.410;2.160;2023-03-05T12:55:12;16.00;99.90
5364;DHT22;2705;41.410;2.160;2023-03-05T12:57:44;16.00;99.90
5364;DHT22;2705;41.410;2.160;2023-03-05T13:00:17;16.10;99.90
5364;DHT22;2705;41.410;2.160;2023-03-05T13:02:53;16.30;99.90
5364;DHT22;2705;41.410;2.160;2023-03-05T13:05:30;16.30;99.90
5364;DHT22;2705;41.410;2.160;2023-03-05T13:08:11;16.40;99.90
5364;DHT22;2705;41.410;2.160;2023-03-05T13:10:44;16.40;99.60
5364;DHT22;2705;41.410;2.160;2023-03-05T13:13:18;16.30;99.60
5364;DHT22;2705;41.410;2.160;2023-03-05T13:15:48;16.30;99.60
5364;DHT22;2705;41.410;2.160;2023-03-05T13:18:19;16.30;99.90
5364;DHT22;2705;41.410;2.160;2023-03-05T13:21:01;16.60;99.90
5364;DHT22;2705;41.410;2.160;2023-03-05T13:23:33;16.60;99.90
5364;DHT22;2705;41.410;2.160;2023-03-05T13:26:10;16.80;99.90
5364;DHT22;2705;41.410;2.160;2023-03-05T13:28:43;16.80;99.70
5364;DHT22;2705;41.410;2.160;2023-03-05T13:31:14;16.70;99.30
5364;DHT22;2705;41.410;2.160;2023-03-05T13:33:51;16.60;99.30
5364;DHT22;2705;41.410;2.160;2023-03-05T13:36:24;16.50;99.20
5364;DHT22;2705;41.410;2.160;2023-03-05T13:38:54;16.60;99.40
5364;DHT22;2705;41.410;2.160;2023-03-05T13:41:24;16.50;99.60
5364;DHT22;2705;41.410;2.160;2023-03-05T13:43:55;16.50;99.50
5364;DHT22;2705;41.410;2.160;2023-03-05T13:46:27;16.40;99.30
5364;DHT22;2705;41.410;2.160;2023-03-05T13:49:14;16.40;99.50
5364;DHT22;2705;41.410;2.160;2023-03-05T13:51:48;16.50;99.60
5364;DHT22;2705;41.410;2.160;2023-03-05T13:54:18;16.40;99.40
5364;DHT22;2705;41.410;2.160;2023-03-05T13:56:52;16.30;99.60
5364;DHT22;2705;41.410;2.160;2023-03-05T13:59:23;16.40;99.90
5364;DHT22;2705;41.410;2.160;2023-03-05T14:01:53;16.40;99.90
5364;DHT22;2705;41.410;2.160;2023-03-05T14:04:24;16.20;99.90
5364;DHT22;2705;41.410;2.160;2023-03-05T14:06:59;16.30;99.90
5364;DHT22;2705;41.410;2.160;2023-03-05T14:09:42;16.30;99.90
5364;DHT22;2705;41.410;2.160;2023-03-05T14:12:24;16.50;99.90
5364;DHT22;2705;41.410;2.160;2023-03-05T14:14:57;16.40;99.90
5364;DHT22;2705;41.410;2.160;2023-03-05T14:17:36;16.30;99.90
5364;DHT22;2705;41.410;2.160;2023-03-05T14:20:13;16.20;99.90
5364;DHT22;2705;41.410;2.160;2023-03-05T14:22:47;16.10;99.90
5364;DHT22;2705;41.410;2.160;2023-03-05T14:25:29;16.00;99.90
5364;DHT22;2705;41.410;2.160;2023-03-05T14:28:01;16.10;99.90
5364;DHT22;2705;41.410;2.160;2023-03-05T14:30:30;16.10;99.90
5364;DHT22;2705;41.410;2.160;2023-03-05T14:33:03;16.10;99.90
5364;DHT22;2705;41.410;2.160;2023-03-05T14:35:32;16.00;99.90
5364;DHT22;2705;41.410;2.160;2023-03-05T14:38:03;16.20;99.90
5364;DHT22;2705;41.410;2.160;2023-03-05T14:40:35;16.20;99.90
5364;DHT22;2705;41.410;2.160;2023-03-05T14:43:05;16.20;99.90
5364;DHT22;2705;41.410;2.160;2023-03-05T14:45:36;16.20;99.90
5364;DHT22;2705;41.410;2.160;2023-03-05T14:48:07;16.00;99.90
5364;DHT22;2705;41.410;2.160;2023-03-05T14:50:40;16.20;99.90
5364;DHT22;2705;41.410;2.160;2023-03-05T14:53:14;16.30;99.90
5364;DHT22;2705;41.410;2.160;2023-03-05T14:55:45;16.20;99.90
5364;DHT22;2705;41.410;2.160;2023-03-05T14:58:19;16.20;99.90
5364;DHT22;2705;41.410;2.160;2023-03-05T15:00:48;15.90;99.90
5364;DHT22;2705;41.410;2.160;2023-03-05T15:03:18;15.90;99.90
5364;DHT22;2705;41.410;2.160;2023-03-05T15:05:50;15.80;99.90
5364;DHT22;2705;41.410;2.160;2023-03-05T15:08:24;16.00;99.90
5364;DHT22;2705;41.410;2.160;2023-03-05T15:10:54;16.40;99.90
5364;DHT22;2705;41.410;2.160;2023-03-05T15:13:23;16.60;99.90
5364;DHT22;2705;41.410;2.160;2023-03-05T15:15:53;17.00;99.90
5364;DHT22;2705;41.410;2.160;2023-03-05T15:18:22;17.30;99.90
5364;DHT22;2705;41.410;2.160;2023-03-05T15:20:52;17.30;99.90
5364;DHT22;2705;41.410;2.160;2023-03-05T15:23:23;17.00;99.90
5364;DHT22;2705;41.410;2.160;2023-03-05T15:25:52;17.10;99.90
5364;DHT22;2705;41.410;2.160;2023-03-05T15:28:21;17.30;99.90
5364;DHT22;2705;41.410;2.160;2023-03-05T15:30:51;17.40;99.90
5364;DHT22;2705;41.410;2.160;2023-03-05T15:33:20;17.50;99.90
5364;DHT22;2705;41.410;2.160;2023-03-05T15:35:49;17.50;99.90
5364;DHT22;2705;41.410;2.160;2023-03-05T15:38:18;17.40;99.90
5364;DHT22;2705;41.410;2.160;2023-03-05T15:40:49;17.30;99.90
5364;DHT22;2705;41.410;2.160;2023-03-05T15:43:19;17.30;99.90
5364;DHT22;2705;41.410;2.160;2023-03-05T15:45:48;17.20;99.90
5364;DHT22;2705;41.410;2.160;2023-03-05T15:48:17;17.30;99.90
5364;DHT22;2705;41.410;2.160;2023-03-05T15:50:46;17.30;99.90
5364;DHT22;2705;41.410;2.160;2023-03-05T15:53:15;17.40;99.90
5364;DHT22;2705;41.410;2.160;2023-03-05T15:55:44;17.30;99.90
5364;DHT22;2705;41.410;2.160;2023-03-05T15:58:15;17.20;99.90
5364;DHT22;2705;41.410;2.160;2023-03-05T16:00:45;17.20;99.90
5364;DHT22;2705;41.410;2.160;2023-03-05T16:03:16;17.50;99.90
5364;DHT22;2705;41.410;2.160;2023-03-05T16:05:46;17.50;99.90
5364;DHT22;2705;41.410;2.160;2023-03-05T16:08:15;17.40;99.90
5364;DHT22;2705;41.410;2.160;2023-03-05T16:10:45;16.70;99.90
5364;DHT22;2705;41.410;2.160;2023-03-05T16:13:16;16.20;99.90
5364;DHT22;2705;41.410;2.160;2023-03-05T16:15:48;16.00;99.90
5364;DHT22;2705;41.410;2.160;2023-03-05T16:18:20;15.50;99.90
5364;DHT22;2705;41.410;2.160;2023-03-05T16:20:51;15.40;99.90
5364;DHT22;2705;41.410;2.160;2023-03-05T16:23:20;15.30;99.90
5364;DHT22;2705;41.410;2.160;2023-03-05T16:25:49;15.20;99.90
5364;DHT22;2705;41.410;2.160;2023-03-05T16:28:20;15.30;99.90
5364;DHT22;2705;41.410;2.160;2023-03-05T16:30:53;15.30;99.90
5364;DHT22;2705;41.410;2.160;2023-03-05T16:33:22;15.20;99.90
5364;DHT22;2705;41.410;2.160;2023-03-05T16:36:22;15.10;99.90
5364;DHT22;2705;41.410;2.160;2023-03-05T16:38:52;15.10;99.90
5364;DHT22;2705;41.410;2.160;2023-03-05T16:41:22;14.90;99.90
5364;DHT22;2705;41.410;2.160;2023-03-05T16:43:53;14.90;99.90
5364;DHT22;2705;41.410;2.160;2023-03-05T16:46:25;15.00;99.90
5364;DHT22;2705;41.410;2.160;2023-03-05T16:48:55;14.80;99.90
5364;DHT22;2705;41.410;2.160;2023-03-05T16:51:25;14.70;99.90
5364;DHT22;2705;41.410;2.160;2023-03-05T16:53:54;14.30;99.90